Hauptseite
METAR-TAF:

METAR-TAF

Flughäfen :

Piacenza, Italien

Militärflugplatz Piacenza

Breite: 44-55N, Länge: 009-44E, Höhe: 134 m

Beobachtung

Neuester Wetterbericht von vor 29 Minuten, um 10:55 UTC
Windstille
Temperatur 9°C
Luftfeuchtigkeit 100%
Luftdruck 1020 hPa
Sichtweite: 1800 m
Aufgelockert bewölkt in der Höhe von 4000 ft
Durchbrochene Bewölkung in der Höhe von 6000 ft
feuchter Dunst

METAR: LIMS 231055Z 00000KT 1800 BR SCT040 BKN060 09/09 Q1020 RMK OVC VIS MIN 1800 WIND THR30 00000KT YLO

Zeit: 12:24 (11:24 UTC)


TAF: fehlend

Wetterbeobachtungen und Prognosen von mehr als 4000 Flughäfen (METAR und TAF Bericht).

Die verfügbaren Stationen werden durch gelbe und rote Markierungen auf der Karte dargestellt.

Führen Sie die Maus auf sie, um den Namen der Station zu sehen.

Darauf klicken, um die Beobachtung von Wetterbeobachtungen und Prognosen zu sehen.

Um die Karte zu ändern : klicken Sie auf den grünen Tasten mit einem schwarzen Kreuz Zum Vergrößern, auf den grünen Button mit einem Gedankenstrich zu verkleinern, oder auf die grünen Pfeile für benachbarte Karten.


METAR-TAF: